Time;durP1;ratioP1;P1;durP2;ratioP2;P2;SDS_P1;SDS_P2;PMS_P1;PMS_P2;Temp;Humidity;BMP_temperature;BMP_pressure;BME280_temperature;BME280_humidity;BME280_pressure;Samples;Min_cycle;Max_cycle;Signal;HPM_P1;HPM_P2
2022/04/16 00:01:42;;;;;;;1.55;1.45;;;10.80;97.40;;;;;;4985889;28;20084;-75
2022/04/16 00:04:09;;;;;;;2.03;1.70;;;10.80;97.50;;;;;;4987475;28;20046;-75
2022/04/16 00:06:37;;;;;;;2.58;2.30;;;10.80;97.60;;;;;;4997287;28;20137;-75
2022/04/16 00:09:04;;;;;;;1.88;1.77;;;10.70;97.80;;;;;;4997063;28;20022;-75
2022/04/16 00:11:29;;;;;;;2.13;1.90;;;10.70;98.00;;;;;;4997298;28;20113;-74
2022/04/16 00:13:57;;;;;;;2.70;1.87;;;10.70;97.90;;;;;;4974687;28;20113;-76
2022/04/16 00:16:25;;;;;;;2.03;1.73;;;10.70;97.90;;;;;;4996562;28;20360;-75
2022/04/16 00:18:51;;;;;;;2.25;1.55;;;10.70;98.00;;;;;;4971896;28;20018;-75
2022/04/16 00:21:22;;;;;;;2.08;1.88;;;10.80;98.00;;;;;;4972493;28;20471;-76
2022/04/16 00:23:50;;;;;;;1.70;1.60;;;10.70;98.00;;;;;;4976481;28;20037;-76
2022/04/16 00:26:16;;;;;;;2.33;2.00;;;10.70;98.00;;;;;;4995983;28;20022;-75
2022/04/16 00:28:48;;;;;;;2.23;1.73;;;10.80;98.00;;;;;;4994889;28;20026;-74
2022/04/16 00:31:16;;;;;;;2.20;2.00;;;10.80;98.00;;;;;;4995999;28;20420;-74
2022/04/16 00:33:46;;;;;;;2.00;1.80;;;10.70;97.70;;;;;;4994743;28;20524;-75
2022/04/16 00:36:14;;;;;;;3.45;2.22;;;10.70;97.80;;;;;;4997029;28;20113;-75
2022/04/16 00:38:42;;;;;;;3.72;1.98;;;10.60;97.70;;;;;;4985696;28;20778;-75
2022/04/16 00:41:07;;;;;;;3.30;2.00;;;10.70;98.00;;;;;;4997847;28;20029;-75
2022/04/16 00:43:33;;;;;;;2.80;2.03;;;10.60;97.70;;;;;;4996040;28;20026;-74
2022/04/16 00:46:00;;;;;;;1.95;1.75;;;10.60;97.60;;;;;;4994617;28;20017;-75
2022/04/16 00:48:27;;;;;;;;;;;10.60;97.70;;;;;;4973257;28;20010;-74
2022/04/16 00:50:55;;;;;;;2.42;1.92;;;10.60;97.70;;;;;;4973691;28;19910;-74
2022/04/16 00:53:29;;;;;;;2.58;1.73;;;10.70;97.70;;;;;;4976559;28;20014;-76
2022/04/16 00:56:00;;;;;;;2.28;2.08;;;10.60;97.80;;;;;;4994823;28;20068;-75
2022/04/16 00:58:26;;;;;;;2.28;2.03;;;10.60;98.20;;;;;;4969139;28;20017;-74
2022/04/16 01:00:56;;;;;;;2.63;2.00;;;10.60;97.90;;;;;;4994461;28;20022;-75
2022/04/16 01:03:28;;;;;;;2.65;1.92;;;10.60;98.00;;;;;;4998636;28;20021;-74
2022/04/16 01:05:57;;;;;;;2.05;1.85;;;10.50;98.10;;;;;;4971166;28;20030;-75
2022/04/16 01:08:25;;;;;;;3.33;2.42;;;10.50;98.10;;;;;;4972246;28;20022;-74
2022/04/16 01:10:52;;;;;;;3.17;2.38;;;10.60;98.20;;;;;;4993794;28;20026;-75
2022/04/16 01:13:18;;;;;;;2.95;2.45;;;10.50;98.20;;;;;;4997491;28;20030;-75
2022/04/16 01:15:44;;;;;;;;;;;10.50;98.40;;;;;;4994858;28;20034;-75
2022/04/16 01:18:12;;;;;;;2.72;2.20;;;10.40;98.60;;;;;;4997163;28;19914;-74
2022/04/16 01:20:39;;;;;;;3.78;2.30;;;10.40;98.50;;;;;;4997216;28;21456;-76
2022/04/16 01:23:07;;;;;;;3.17;2.10;;;10.40;98.50;;;;;;4973168;28;20021;-75
2022/04/16 01:25:35;;;;;;;2.67;1.80;;;10.50;98.50;;;;;;4997238;28;20021;-75
2022/04/16 01:28:02;;;;;;;4.68;2.58;;;10.50;98.50;;;;;;4983813;28;20026;-75
2022/04/16 01:30:30;;;;;;;2.95;2.28;;;10.50;98.60;;;;;;4983260;28;20021;-75
2022/04/16 01:32:56;;;;;;;3.33;2.10;;;10.50;98.50;;;;;;4992333;28;20541;-75
2022/04/16 01:35:22;;;;;;;;;;;10.50;98.50;;;;;;4996727;28;20021;-75
2022/04/16 01:37:47;;;;;;;3.15;2.13;;;10.50;98.50;;;;;;4994662;28;19909;-75
2022/04/16 01:40:16;;;;;;;3.03;2.50;;;10.40;98.60;;;;;;4991469;28;20109;-74
2022/04/16 01:42:48;;;;;;;2.28;1.92;;;10.40;98.60;;;;;;4970381;28;20084;-75
2022/04/16 01:45:17;;;;;;;2.22;1.80;;;10.40;98.70;;;;;;4997423;28;21181;-75
2022/04/16 01:47:47;;;;;;;3.08;2.40;;;10.40;98.80;;;;;;4994082;28;20018;-75
2022/04/16 01:50:16;;;;;;;2.38;2.05;;;10.40;98.70;;;;;;4972958;28;21758;-74
2022/04/16 01:52:44;;;;;;;2.78;2.20;;;10.40;98.70;;;;;;4969457;28;20030;-75
2022/04/16 01:55:12;;;;;;;3.35;2.45;;;10.40;98.60;;;;;;4996956;28;20165;-75
2022/04/16 01:57:38;;;;;;;3.42;2.25;;;10.40;98.60;;;;;;4973431;28;20037;-75
2022/04/16 02:00:08;;;;;;;2.67;2.28;;;10.40;98.60;;;;;;4993829;28;20100;-74
2022/04/16 02:02:42;;;;;;;2.50;2.00;;;10.40;98.50;;;;;;4996737;28;20034;-75
2022/04/16 02:05:10;;;;;;;2.58;2.20;;;10.50;98.50;;;;;;4972508;28;20034;-75
2022/04/16 02:07:40;;;;;;;2.00;1.67;;;10.50;98.40;;;;;;4988821;28;20030;-75
2022/04/16 02:10:07;;;;;;;2.20;1.85;;;10.50;98.20;;;;;;4996289;28;20022;-76
2022/04/16 02:12:35;;;;;;;2.40;2.10;;;10.60;98.20;;;;;;4996890;28;20772;-74
2022/04/16 02:15:02;;;;;;;2.03;1.75;;;10.60;98.10;;;;;;4983029;28;20025;-75
2022/04/16 02:17:29;;;;;;;3.05;2.00;;;10.60;98.20;;;;;;4996765;28;20018;-75
2022/04/16 02:20:06;;;;;;;1.92;1.83;;;10.50;98.10;;;;;;4962428;28;20798;-75
2022/04/16 02:22:59;;;;;;;2.55;2.15;;;10.50;98.30;;;;;;4996056;28;21050;-75
2022/04/16 02:25:26;;;;;;;2.40;2.20;;;10.40;98.40;;;;;;4990127;28;20029;-74
2022/04/16 02:27:52;;;;;;;3.13;2.08;;;10.40;98.70;;;;;;4975472;28;20029;-75
2022/04/16 02:30:19;;;;;;;3.85;2.20;;;10.30;98.80;;;;;;4996943;28;20030;-76
2022/04/16 02:32:52;;;;;;;2.45;1.80;;;10.30;98.90;;;;;;4992797;28;20026;-74
2022/04/16 02:35:21;;;;;;;2.88;2.40;;;10.20;99.20;;;;;;4979367;28;20112;-75
2022/04/16 02:37:51;;;;;;;1.73;1.63;;;10.20;99.20;;;;;;4972946;28;20027;-75
2022/04/16 02:40:23;;;;;;;2.97;2.25;;;10.20;99.40;;;;;;4972718;28;20026;-74
2022/04/16 02:42:54;;;;;;;3.03;2.40;;;10.10;99.60;;;;;;4974581;28;20447;-75
2022/04/16 02:48:04;;;;;;;3.00;2.53;;;10.10;99.90;;;;;;4991161;28;20056;-74
2022/04/16 02:50:33;;;;;;;3.03;2.30;;;10.10;99.90;;;;;;4978123;28;20034;-75
2022/04/16 02:53:00;;;;;;;3.20;2.67;;;10.10;99.90;;;;;;4991955;28;20045;-75
2022/04/16 02:55:27;;;;;;;2.92;2.50;;;10.10;99.90;;;;;;4970569;28;20437;-74
2022/04/16 02:57:58;;;;;;;3.80;2.78;;;10.10;99.90;;;;;;4992018;28;20026;-75
2022/04/16 03:00:26;;;;;;;2.50;2.22;;;10.10;99.90;;;;;;4993610;28;20463;-74
2022/04/16 03:02:55;;;;;;;2.63;2.42;;;10.10;99.90;;;;;;4966367;28;20030;-74
2022/04/16 03:05:23;;;;;;;3.05;2.40;;;10.10;99.90;;;;;;4974318;28;20030;-74
2022/04/16 03:07:50;;;;;;;2.97;2.28;;;10.20;99.90;;;;;;4992015;28;20076;-75
2022/04/16 03:10:15;;;;;;;;;;;10.10;99.90;;;;;;4996038;28;20053;-74
2022/04/16 03:12:51;;;;;;;2.78;2.40;;;10.10;99.90;;;;;;4970379;28;20462;-76
2022/04/16 03:18:07;;;;;;;2.72;2.30;;;10.10;99.90;;;;;;4992209;28;20035;-74
2022/04/16 03:20:37;;;;;;;2.10;1.90;;;10.10;99.90;;;;;;4996528;28;20104;-75
2022/04/16 03:23:04;;;;;;;3.03;2.42;;;10.10;99.90;;;;;;4991910;28;20108;-77
2022/04/16 03:25:37;;;;;;;4.07;2.38;;;10.00;99.90;;;;;;4992357;28;20204;-75
2022/04/16 03:28:05;;;;;;;2.63;2.25;;;10.00;99.90;;;;;;4991895;28;20146;-76
2022/04/16 03:30:32;;;;;;;3.13;2.15;;;10.00;99.90;;;;;;4995419;28;20014;-75
2022/04/16 03:32:59;;;;;;;2.47;1.98;;;10.00;99.90;;;;;;4992057;28;20089;-74
2022/04/16 03:35:27;;;;;;;2.83;2.40;;;10.00;99.90;;;;;;4996808;28;20029;-75
2022/04/16 03:37:56;;;;;;;3.22;2.40;;;10.10;99.90;;;;;;4989174;28;20044;-75
2022/04/16 03:40:26;;;;;;;2.67;2.10;;;10.00;99.90;;;;;;4996542;28;20026;-74
2022/04/16 03:43:01;;;;;;;2.38;2.13;;;10.10;99.90;;;;;;4989348;28;20018;-75
2022/04/16 03:45:43;;;;;;;2.83;2.25;;;10.10;99.90;;;;;;4978715;28;20105;-75
2022/04/16 03:48:21;;;;;;;2.60;2.30;;;10.10;99.90;;;;;;4972655;28;20041;-75
2022/04/16 03:50:50;;;;;;;2.70;2.22;;;10.10;99.90;;;;;;4966685;28;20029;-75
2022/04/16 03:53:17;;;;;;;3.50;2.42;;;10.00;99.90;;;;;;4996469;28;20053;-74
2022/04/16 04:01:20;;;;;;;3.55;2.55;;;10.10;99.90;;;;;;4999892;28;20049;-75
2022/04/16 04:03:48;;;;;;;;;;;10.10;99.90;;;;;;4996292;28;20037;-75
2022/04/16 04:06:14;;;;;;;3.15;2.40;;;10.00;99.90;;;;;;4994487;28;19924;-75
2022/04/16 04:08:40;;;;;;;2.45;2.25;;;10.00;99.90;;;;;;4997726;28;20033;-74
2022/04/16 04:11:06;;;;;;;2.87;2.43;;;10.00;99.90;;;;;;4995018;28;20030;-75
2022/04/16 04:13:31;;;;;;;2.97;2.40;;;10.00;99.90;;;;;;4984395;28;20026;-75
2022/04/16 04:15:58;;;;;;;4.00;2.97;;;10.00;99.90;;;;;;4975696;28;20049;-74
2022/04/16 04:18:26;;;;;;;3.22;2.33;;;10.00;99.90;;;;;;4997990;28;20029;-75
2022/04/16 04:20:54;;;;;;;3.50;2.75;;;10.00;99.90;;;;;;4995124;28;20443;-76
2022/04/16 04:23:20;;;;;;;2.88;2.45;;;10.00;99.90;;;;;;4998952;28;20024;-75
2022/04/16 04:25:46;;;;;;;3.90;2.95;;;9.90;99.90;;;;;;4996015;28;20612;-74
2022/04/16 04:28:16;;;;;;;5.13;3.10;;;10.00;99.90;;;;;;4998881;28;20030;-75
2022/04/16 04:30:44;;;;;;;3.70;2.70;;;10.00;99.90;;;;;;4996742;28;20018;-75
2022/04/16 04:33:11;;;;;;;4.45;2.83;;;10.00;99.90;;;;;;4996318;28;20022;-75
2022/04/16 04:35:37;;;;;;;3.50;2.88;;;9.90;99.90;;;;;;4990022;28;20037;-74
2022/04/16 04:38:02;;;;;;;3.73;2.83;;;9.90;99.90;;;;;;4987269;28;20026;-75
2022/04/16 04:40:29;;;;;;;4.27;3.37;;;9.80;99.90;;;;;;4996189;28;20632;-74
2022/04/16 04:42:57;;;;;;;5.05;3.60;;;9.90;99.90;;;;;;4969597;28;20021;-75
2022/04/16 04:45:23;;;;;;;5.22;3.58;;;9.90;99.90;;;;;;4995868;28;20084;-75
2022/04/16 04:47:56;;;;;;;4.80;3.40;;;10.00;99.90;;;;;;4997963;28;20105;-76
2022/04/16 04:50:23;;;;;;;4.63;3.38;;;9.90;99.90;;;;;;4972903;28;20109;-75
2022/04/16 04:52:50;;;;;;;5.13;3.92;;;9.80;99.90;;;;;;4995223;28;20026;-75
2022/04/16 04:55:15;;;;;;;5.88;3.53;;;9.80;99.90;;;;;;4989772;28;20555;-76
2022/04/16 04:57:45;;;;;;;5.10;3.70;;;9.80;99.90;;;;;;4999668;28;20113;-81
2022/04/16 05:00:12;;;;;;;5.15;3.80;;;9.70;99.90;;;;;;4994541;28;20057;-76
2022/04/16 05:02:49;;;;;;;4.53;3.50;;;9.70;99.90;;;;;;4998023;28;20034;-76
2022/04/16 05:05:18;;;;;;;4.88;3.63;;;9.70;99.90;;;;;;4972244;28;20094;-75
2022/04/16 05:07:44;;;;;;;5.30;3.53;;;9.80;99.90;;;;;;4998330;28;20037;-75
2022/04/16 05:10:11;;;;;;;4.20;3.15;;;9.80;99.90;;;;;;4986025;28;20050;-74
2022/04/16 05:12:37;;;;;;;4.15;2.95;;;9.70;99.90;;;;;;4997867;28;20069;-76
2022/04/16 05:15:05;;;;;;;5.05;3.35;;;9.80;99.90;;;;;;4994173;28;20018;-75
2022/04/16 05:17:40;;;;;;;4.13;3.28;;;9.80;99.90;;;;;;4998861;28;20040;-75
2022/04/16 05:20:09;;;;;;;5.25;3.45;;;9.80;99.90;;;;;;4994734;28;20086;-75
2022/04/16 05:22:48;;;;;;;4.63;3.40;;;9.80;99.90;;;;;;4997320;28;20025;-75
2022/04/16 05:25:16;;;;;;;5.13;3.65;;;9.90;99.90;;;;;;4996476;28;20109;-75
2022/04/16 05:27:45;;;;;;;4.05;3.05;;;9.80;99.90;;;;;;4980587;28;20045;-76
2022/04/16 05:30:14;;;;;;;4.65;3.67;;;9.80;99.90;;;;;;4984422;28;20049;-74
2022/04/16 05:32:47;;;;;;;5.43;3.80;;;9.80;99.90;;;;;;4998088;28;20085;-74
2022/04/16 05:35:17;;;;;;;4.20;3.20;;;9.80;99.90;;;;;;4994006;28;20062;-77
2022/04/16 05:37:44;;;;;;;3.97;3.08;;;9.80;99.90;;;;;;4988548;28;20037;-75
2022/04/16 05:40:11;;;;;;;3.85;3.03;;;9.80;99.90;;;;;;4993470;28;20048;-76
2022/04/16 05:42:44;;;;;;;3.83;3.10;;;9.80;99.90;;;;;;4997572;28;20068;-77
2022/04/16 05:45:14;;;;;;;3.45;2.95;;;9.90;99.90;;;;;;4993278;28;20116;-74
2022/04/16 05:47:43;;;;;;;4.68;2.80;;;9.90;99.90;;;;;;4997788;28;20018;-74
2022/04/16 05:50:16;;;;;;;3.53;2.83;;;9.90;99.60;;;;;;4975713;28;20022;-75
2022/04/16 05:52:43;;;;;;;3.50;2.70;;;9.80;99.50;;;;;;4966983;28;20487;-76
2022/04/16 05:55:10;;;;;;;3.67;3.05;;;9.80;99.40;;;;;;4972878;28;20053;-76
2022/04/16 05:57:41;;;;;;;3.38;2.45;;;9.80;99.20;;;;;;4993582;28;20475;-75
2022/04/16 06:00:12;;;;;;;2.75;2.42;;;9.80;99.20;;;;;;4997369;28;20109;-75
2022/04/16 06:02:40;;;;;;;3.38;2.28;;;9.70;99.10;;;;;;4971595;28;20052;-76
2022/04/16 06:05:07;;;;;;;2.25;2.05;;;9.70;99.30;;;;;;4974350;28;20399;-74
2022/04/16 06:07:33;;;;;;;2.97;2.42;;;9.80;99.40;;;;;;4993776;28;20108;-75
2022/04/16 06:10:05;;;;;;;3.10;2.50;;;9.70;99.00;;;;;;4997142;28;20519;-75
2022/04/16 06:12:34;;;;;;;2.85;2.50;;;9.80;99.30;;;;;;4970298;28;20017;-74
2022/04/16 06:15:01;;;;;;;2.28;2.08;;;9.90;99.10;;;;;;4994829;28;20029;-75
2022/04/16 06:17:26;;;;;;;2.78;2.50;;;9.90;99.10;;;;;;4993221;28;20022;-74
2022/04/16 06:19:52;;;;;;;2.63;2.20;;;9.90;98.90;;;;;;4998060;28;20076;-74
2022/04/16 06:22:18;;;;;;;2.87;2.27;;;10.10;99.40;;;;;;4986493;28;20050;-73
2022/04/16 06:24:44;;;;;;;2.20;2.00;;;10.40;99.50;;;;;;4993140;28;20024;-74
2022/04/16 06:27:12;;;;;;;3.03;2.73;;;10.80;97.60;;;;;;4997001;28;20024;-73
2022/04/16 06:29:38;;;;;;;2.67;2.35;;;10.80;97.10;;;;;;4992501;28;20030;-73
2022/04/16 06:32:06;;;;;;;3.63;2.77;;;11.00;96.60;;;;;;4971075;28;20422;-73
2022/04/16 06:34:33;;;;;;;2.70;2.40;;;11.00;96.50;;;;;;4992693;28;20022;-72
2022/04/16 06:37:00;;;;;;;;;;;11.10;96.10;;;;;;4994903;28;20028;-73
2022/04/16 06:39:26;;;;;;;3.30;2.50;;;11.10;96.30;;;;;;4971017;28;19909;-73
2022/04/16 06:41:52;;;;;;;2.60;2.40;;;11.10;96.20;;;;;;4993819;28;20080;-73
2022/04/16 06:44:19;;;;;;;3.03;2.70;;;11.20;96.20;;;;;;4995264;28;20475;-73
2022/04/16 06:46:46;;;;;;;;;;;11.30;96.00;;;;;;4967386;28;20022;-73
2022/04/16 06:49:12;;;;;;;2.90;2.30;;;11.60;95.60;;;;;;4995942;28;20677;-72
2022/04/16 06:51:37;;;;;;;2.93;2.47;;;12.00;95.30;;;;;;4969745;28;20037;-73
2022/04/16 06:54:04;;;;;;;2.67;2.47;;;12.80;93.60;;;;;;4995378;28;20582;-72
2022/04/16 06:56:29;;;;;;;;;;;13.10;92.20;;;;;;4990920;28;20026;-73
2022/04/16 06:58:56;;;;;;;2.70;2.45;;;12.90;91.70;;;;;;4996437;28;19905;-72
2022/04/16 07:01:25;;;;;;;3.13;2.28;;;12.40;92.10;;;;;;4994876;28;20022;-72
2022/04/16 07:03:53;;;;;;;2.47;2.20;;;12.10;93.10;;;;;;4977199;28;20062;-72
2022/04/16 07:06:19;;;;;;;2.17;1.85;;;11.80;93.20;;;;;;4992751;28;20137;-73
2022/04/16 07:08:46;;;;;;;3.63;2.60;;;11.60;93.50;;;;;;4960421;28;20791;-73
2022/04/16 07:11:13;;;;;;;2.65;2.30;;;11.40;94.10;;;;;;4967830;28;20818;-72
2022/04/16 07:13:39;;;;;;;;;;;11.30;94.50;;;;;;4990225;28;20022;-72
2022/04/16 07:16:05;;;;;;;2.58;2.17;;;11.20;94.40;;;;;;4995597;28;19913;-72
2022/04/16 07:18:31;;;;;;;2.73;2.20;;;11.00;95.00;;;;;;4990311;28;20036;-73
2022/04/16 07:20:58;;;;;;;2.93;2.17;;;10.80;95.30;;;;;;4993555;28;20021;-72
2022/04/16 07:23:24;;;;;;;3.42;2.33;;;10.70;95.60;;;;;;4976659;28;20025;-72
2022/04/16 07:25:51;;;;;;;2.53;1.92;;;10.60;95.60;;;;;;4994529;28;20375;-72
2022/04/16 07:28:21;;;;;;;2.65;1.75;;;10.60;95.50;;;;;;4995855;28;20045;-72
2022/04/16 07:30:51;;;;;;;1.73;1.63;;;10.60;95.40;;;;;;4990963;28;20025;-72
2022/04/16 07:33:17;;;;;;;1.67;1.58;;;10.50;95.80;;;;;;4993542;28;20831;-72
2022/04/16 07:35:44;;;;;;;1.83;1.60;;;10.40;95.80;;;;;;4995888;28;20030;-72
2022/04/16 07:38:11;;;;;;;;;;;10.40;95.30;;;;;;4999072;28;20038;-71
2022/04/16 07:40:38;;;;;;;1.80;1.40;;;10.40;95.20;;;;;;4995028;28;20565;-72
2022/04/16 07:43:05;;;;;;;5.10;1.30;;;10.40;95.30;;;;;;4982231;28;20117;-72
2022/04/16 07:45:32;;;;;;;1.67;1.30;;;10.40;96.60;;;;;;4965457;28;20049;-74
2022/04/16 07:47:57;;;;;;;0.90;0.80;;;10.40;96.10;;;;;;4999586;28;20501;-72
2022/04/16 07:50:24;;;;;;;2.80;1.30;;;10.70;95.10;;;;;;4986894;28;20030;-73
2022/04/16 07:52:51;;;;;;;;;;;10.80;94.70;;;;;;4996817;28;20029;-72
2022/04/16 07:55:17;;;;;;;1.55;1.30;;;10.80;95.10;;;;;;4999917;28;19917;-72
2022/04/16 07:57:43;;;;;;;;;;;10.90;94.40;;;;;;4995647;28;20491;-72
2022/04/16 08:00:11;;;;;;;1.45;1.35;;;10.80;94.20;;;;;;4998251;28;19914;-72
2022/04/16 08:02:37;;;;;;;1.25;1.15;;;10.60;94.40;;;;;;4991107;28;20056;-72
2022/04/16 08:05:04;;;;;;;1.87;1.30;;;10.50;94.70;;;;;;4998421;28;20092;-73
2022/04/16 08:07:32;;;;;;;1.98;1.05;;;10.40;94.70;;;;;;4994902;28;20029;-72
2022/04/16 08:09:57;;;;;;;1.52;1.40;;;10.20;95.10;;;;;;4973446;28;20029;-73
2022/04/16 08:12:25;;;;;;;2.07;1.10;;;10.20;95.30;;;;;;4999488;28;20403;-74
2022/04/16 08:14:51;;;;;;;1.10;1.00;;;10.10;95.60;;;;;;4992985;28;20030;-72
2022/04/16 08:17:17;;;;;;;1.70;1.30;;;10.10;95.60;;;;;;4999563;28;20036;-73
2022/04/16 08:19:44;;;;;;;1.37;1.27;;;10.00;95.80;;;;;;4997229;28;20042;-72
2022/04/16 08:22:17;;;;;;;1.42;1.33;;;10.10;95.90;;;;;;4996198;28;20526;-72
2022/04/16 08:24:53;;;;;;;2.50;1.70;;;10.00;96.00;;;;;;4983124;28;20607;-73
2022/04/16 08:27:21;;;;;;;;;;;9.90;96.10;;;;;;5000738;28;20096;-72
2022/04/16 08:29:48;;;;;;;1.30;1.20;;;9.90;96.20;;;;;;4970465;28;19917;-72
2022/04/16 08:32:15;;;;;;;1.50;1.30;;;10.00;96.10;;;;;;4998542;28;20027;-72
2022/04/16 08:34:41;;;;;;;;;;;10.00;96.30;;;;;;4986061;28;20033;-74
2022/04/16 08:37:07;;;;;;;1.40;1.30;;;10.00;96.30;;;;;;4974484;28;19909;-73
2022/04/16 08:39:35;;;;;;;;;;;10.00;96.50;;;;;;4994594;28;20356;-72
2022/04/16 08:42:01;;;;;;;1.63;1.40;;;9.90;96.40;;;;;;4974726;28;19917;-72
2022/04/16 08:44:28;;;;;;;1.40;1.30;;;9.90;96.40;;;;;;4990584;28;20038;-72
2022/04/16 08:46:55;;;;;;;1.20;1.10;;;9.80;96.40;;;;;;4995936;28;20018;-72
2022/04/16 08:49:21;;;;;;;1.58;1.20;;;9.80;96.40;;;;;;4997054;28;20760;-71
2022/04/16 08:51:50;;;;;;;1.35;1.17;;;9.80;96.60;;;;;;4994050;28;20026;-72
2022/04/16 08:54:17;;;;;;;1.20;1.10;;;9.80;96.50;;;;;;4997686;28;20545;-72
2022/04/16 08:56:44;;;;;;;;;;;9.90;96.40;;;;;;4985115;28;20029;-72
2022/04/16 08:59:10;;;;;;;1.40;1.00;;;9.90;96.60;;;;;;4998088;28;19913;-72
2022/04/16 09:01:42;;;;;;;1.13;1.03;;;9.90;96.20;;;;;;4993792;28;20033;-72
2022/04/16 09:04:19;;;;;;;1.08;0.95;;;9.90;96.10;;;;;;4998253;28;20113;-72
2022/04/16 09:06:57;;;;;;;1.38;1.17;;;9.90;96.00;;;;;;4994467;28;20038;-72
2022/04/16 09:09:24;;;;;;;1.30;0.80;;;9.90;95.60;;;;;;4994366;28;20117;-72
2022/04/16 09:11:50;;;;;;;1.10;1.00;;;9.90;95.70;;;;;;4992678;28;20018;-72
2022/04/16 09:14:16;;;;;;;0.70;0.70;;;9.80;95.50;;;;;;4971016;28;20029;-72
2022/04/16 09:16:52;;;;;;;1.33;1.23;;;9.90;95.70;;;;;;4992908;28;20141;-73
2022/04/16 09:19:21;;;;;;;1.30;1.20;;;9.80;95.40;;;;;;4976412;28;20767;-73
2022/04/16 09:21:48;;;;;;;1.35;1.20;;;9.90;95.60;;;;;;4967522;28;20036;-73
2022/04/16 09:24:14;;;;;;;;;;;9.90;95.40;;;;;;4999874;28;20042;-73
2022/04/16 09:26:41;;;;;;;2.03;1.15;;;9.90;95.20;;;;;;4980940;28;19964;-74
2022/04/16 09:29:08;;;;;;;;;;;9.80;95.30;;;;;;4997977;28;20014;-73
2022/04/16 09:31:41;;;;;;;1.48;1.27;;;9.80;95.20;;;;;;4992378;28;19915;-73
2022/04/16 09:34:14;;;;;;;1.27;1.10;;;9.80;95.20;;;;;;4997200;28;20022;-72
2022/04/16 09:36:44;;;;;;;1.65;1.30;;;10.00;95.20;;;;;;4993004;28;20372;-73
2022/04/16 09:39:11;;;;;;;1.83;1.40;;;9.80;95.00;;;;;;4997114;28;20034;-72
2022/04/16 09:41:42;;;;;;;1.23;1.13;;;9.90;95.50;;;;;;4991942;28;20108;-73
2022/04/16 09:44:23;;;;;;;1.67;1.10;;;10.00;95.20;;;;;;4997277;28;20057;-73
2022/04/16 09:46:50;;;;;;;1.70;1.40;;;10.00;95.10;;;;;;4971505;28;20519;-73
2022/04/16 09:49:21;;;;;;;1.50;1.40;;;10.00;94.60;;;;;;4973611;28;20058;-73
2022/04/16 09:51:49;;;;;;;3.70;1.40;;;10.10;94.50;;;;;;4965444;28;20382;-73
2022/04/16 09:54:16;;;;;;;1.50;1.17;;;10.20;94.40;;;;;;4998097;28;20018;-73
2022/04/16 09:56:46;;;;;;;2.22;1.70;;;10.40;94.20;;;;;;4992914;28;20109;-73
2022/04/16 09:59:16;;;;;;;1.80;1.55;;;10.50;93.50;;;;;;4987672;28;20035;-72
2022/04/16 10:01:48;;;;;;;2.00;1.60;;;10.70;93.40;;;;;;4991628;28;20040;-73
2022/04/16 10:04:20;;;;;;;1.38;1.20;;;11.00;93.40;;;;;;4973567;28;20068;-73
2022/04/16 10:06:47;;;;;;;1.63;1.50;;;11.50;92.50;;;;;;4990926;28;20061;-73
2022/04/16 10:09:17;;;;;;;1.80;1.60;;;12.00;91.40;;;;;;4973103;28;20026;-72
2022/04/16 10:15:02;;;;;;;1.90;1.50;;;13.00;90.00;;;;;;4991894;28;20096;-73
2022/04/16 10:17:42;;;;;;;1.55;1.30;;;13.70;87.10;;;;;;4996802;28;20542;-73
2022/04/16 10:20:11;;;;;;;1.73;1.50;;;14.30;85.90;;;;;;4988639;28;20025;-73
2022/04/16 10:22:39;;;;;;;1.95;1.58;;;15.20;79.40;;;;;;4991517;28;20017;-73
2022/04/16 10:25:05;;;;;;;2.60;1.98;;;15.60;75.30;;;;;;4969732;28;20030;-72
2022/04/16 10:27:42;;;;;;;1.85;1.55;;;15.30;73.80;;;;;;4992981;28;20092;-73
2022/04/16 10:30:12;;;;;;;1.88;1.35;;;14.90;74.10;;;;;;4995466;28;20049;-73
2022/04/16 10:32:40;;;;;;;1.58;1.35;;;15.00;72.90;;;;;;4968453;28;20025;-73
2022/04/16 10:35:15;;;;;;;4.63;1.67;;;15.10;71.20;;;;;;4969230;28;20025;-73
2022/04/16 10:37:44;;;;;;;3.25;1.60;;;15.30;70.30;;;;;;4991014;28;20029;-74
2022/04/16 10:40:22;;;;;;;2.30;1.45;;;15.20;68.70;;;;;;4995821;28;20053;-73
2022/04/16 10:42:59;;;;;;;2.20;1.50;;;15.20;68.90;;;;;;4992124;28;20156;-73
2022/04/16 10:45:25;;;;;;;1.95;1.42;;;15.20;68.40;;;;;;4984193;28;20022;-72
2022/04/16 10:47:55;;;;;;;1.98;1.48;;;14.90;68.00;;;;;;4988514;28;20116;-73
2022/04/16 10:50:22;;;;;;;2.05;1.70;;;14.60;67.70;;;;;;4982316;28;20022;-72
2022/04/16 10:52:56;;;;;;;1.35;1.25;;;14.20;69.00;;;;;;4991536;28;20099;-73
2022/04/16 10:55:30;;;;;;;1.73;1.42;;;13.90;70.80;;;;;;4996981;28;20029;-72
2022/04/16 10:58:03;;;;;;;1.65;1.23;;;13.70;70.90;;;;;;4992203;28;20407;-73
2022/04/16 11:00:47;;;;;;;1.70;1.45;;;13.50;71.80;;;;;;4992388;28;20025;-72
2022/04/16 11:03:18;;;;;;;2.00;1.60;;;13.20;73.00;;;;;;4992113;28;20037;-73
2022/04/16 11:05:44;;;;;;;3.03;2.13;;;12.90;73.70;;;;;;4997513;28;20026;-73
2022/04/16 11:08:12;;;;;;;3.00;2.00;;;12.60;74.80;;;;;;4992231;28;20053;-73
2022/04/16 11:10:39;;;;;;;1.95;1.70;;;12.10;76.20;;;;;;4993174;28;20030;-73
2022/04/16 11:13:05;;;;;;;2.95;1.92;;;11.70;77.40;;;;;;4997579;28;20018;-72
2022/04/16 11:15:33;;;;;;;3.00;1.90;;;11.30;78.80;;;;;;4996071;28;20018;-72
2022/04/16 11:18:01;;;;;;;2.17;1.75;;;11.20;80.20;;;;;;4977568;28;20316;-73
2022/04/16 11:20:29;;;;;;;2.17;1.73;;;11.00;80.60;;;;;;4996211;28;20677;-72
2022/04/16 11:22:58;;;;;;;2.47;2.00;;;10.90;82.00;;;;;;4995815;28;20101;-72
2022/04/16 11:25:25;;;;;;;3.08;1.88;;;11.00;82.00;;;;;;4992780;28;20101;-72
2022/04/16 11:36:12;;;;;;;2.58;2.10;;;10.50;83.30;;;;;;4998778;28;21176;-73
2022/04/16 11:38:40;;;;;;;2.03;1.83;;;10.30;83.90;;;;;;4995880;28;20030;-72
2022/04/16 11:41:08;;;;;;;2.95;1.85;;;10.20;83.60;;;;;;4999676;28;20125;-72
2022/04/16 11:43:38;;;;;;;2.58;2.05;;;10.20;84.60;;;;;;4997872;28;20030;-72
2022/04/16 11:46:11;;;;;;;2.00;1.80;;;10.20;83.90;;;;;;4974290;28;20030;-73
2022/04/16 11:48:45;;;;;;;2.53;1.98;;;10.20;83.90;;;;;;4990882;28;20113;-73
2022/04/16 11:51:17;;;;;;;2.20;1.80;;;10.20;84.30;;;;;;4990170;28;20446;-72
2022/04/16 11:53:51;;;;;;;2.92;1.65;;;10.20;84.20;;;;;;4978156;28;20438;-73
2022/04/16 11:56:22;;;;;;;2.70;1.90;;;10.20;83.90;;;;;;4966243;28;20026;-72
2022/04/16 11:58:50;;;;;;;2.17;1.88;;;10.30;84.10;;;;;;4999389;28;20557;-80
2022/04/16 12:01:20;;;;;;;2.45;1.90;;;10.20;82.50;;;;;;4996707;28;20109;-73
2022/04/16 12:03:46;;;;;;;2.17;1.85;;;10.20;83.20;;;;;;4998733;28;20109;-74
2022/04/16 12:06:13;;;;;;;2.00;1.70;;;10.30;83.80;;;;;;4986296;28;20104;-73
2022/04/16 12:08:43;;;;;;;2.30;1.90;;;10.30;83.20;;;;;;4989993;28;20534;-72
2022/04/16 12:11:11;;;;;;;2.80;1.98;;;10.40;82.20;;;;;;4998052;28;20224;-72
2022/04/16 12:13:40;;;;;;;2.75;1.70;;;10.30;81.20;;;;;;4997711;28;20097;-72
2022/04/16 12:16:12;;;;;;;2.20;1.88;;;10.30;82.20;;;;;;4998783;28;20033;-72
2022/04/16 12:18:46;;;;;;;2.05;1.80;;;10.20;81.30;;;;;;4992838;28;20479;-73
2022/04/16 12:21:17;;;;;;;2.67;1.83;;;10.20;80.50;;;;;;4994767;28;20168;-73
2022/04/16 12:23:44;;;;;;;2.90;2.25;;;10.20;80.20;;;;;;4972494;28;20510;-72
2022/04/16 12:26:19;;;;;;;2.08;1.60;;;10.20;79.90;;;;;;4969077;28;20041;-73
2022/04/16 12:28:51;;;;;;;1.80;1.60;;;10.50;79.70;;;;;;4999278;28;20044;-72
2022/04/16 12:31:28;;;;;;;3.08;2.05;;;10.80;78.70;;;;;;4994690;28;20435;-73
2022/04/16 12:33:58;;;;;;;1.75;1.63;;;11.10;76.90;;;;;;4973737;28;20022;-73
2022/04/16 12:36:25;;;;;;;3.33;1.88;;;11.20;75.80;;;;;;4994394;28;20053;-73
2022/04/16 12:38:54;;;;;;;2.10;1.75;;;11.20;75.70;;;;;;4998773;28;20025;-72
2022/04/16 12:41:23;;;;;;;2.13;1.70;;;11.20;74.20;;;;;;4973540;28;20105;-73
2022/04/16 12:43:49;;;;;;;2.67;2.00;;;11.10;73.90;;;;;;4980829;28;20022;-72
2022/04/16 12:46:15;;;;;;;1.60;1.50;;;11.00;74.10;;;;;;4972777;28;20084;-73
2022/04/16 12:48:48;;;;;;;1.90;1.63;;;11.00;74.80;;;;;;4998995;28;20483;-73
2022/04/16 12:51:14;;;;;;;3.15;1.73;;;11.00;74.10;;;;;;4967811;28;20037;-73
2022/04/16 12:53:41;;;;;;;;;;;11.20;73.70;;;;;;4999666;28;20026;-74
2022/04/16 12:56:06;;;;;;;2.25;1.63;;;11.10;73.30;;;;;;4999104;28;20104;-72
2022/04/16 12:58:32;;;;;;;2.03;1.60;;;11.30;72.60;;;;;;4994447;28;20720;-73
2022/04/16 13:01:01;;;;;;;1.80;1.70;;;11.40;71.80;;;;;;4973135;28;20026;-72
2022/04/16 13:03:26;;;;;;;2.45;1.83;;;11.40;71.50;;;;;;4992974;28;20174;-73
2022/04/16 13:05:52;;;;;;;2.37;1.63;;;11.40;71.60;;;;;;4998824;28;20029;-73
2022/04/16 13:08:20;;;;;;;1.50;1.40;;;11.50;71.10;;;;;;4992690;28;20901;-73
2022/04/16 13:10:48;;;;;;;2.47;1.77;;;11.60;71.00;;;;;;4998508;28;21402;-73
2022/04/16 13:13:14;;;;;;;1.83;1.58;;;11.60;70.80;;;;;;4995569;28;20809;-73
2022/04/16 13:15:41;;;;;;;1.83;1.60;;;11.50;71.60;;;;;;4979042;28;20028;-73
2022/04/16 13:18:07;;;;;;;;;;;11.50;70.50;;;;;;4998925;28;20093;-72
2022/04/16 13:20:37;;;;;;;1.98;1.58;;;11.60;70.90;;;;;;4993578;28;20000;-72
2022/04/16 13:23:05;;;;;;;3.05;1.80;;;11.80;70.90;;;;;;4997980;28;20022;-73
2022/04/16 13:25:33;;;;;;;4.50;1.65;;;11.80;70.90;;;;;;4992579;28;20105;-73